sensor_id;sensor_type;location;lat;lon;timestamp;P1;durP1;ratioP1;P2;durP2;ratioP2
31660;SDS011;18267;52.234;7.444;2023-06-26T00:01:16;8.27;;;7.45;;
31660;SDS011;18267;52.234;7.444;2023-06-26T00:03:45;8.45;;;7.07;;
31660;SDS011;18267;52.234;7.444;2023-06-26T00:06:11;8.85;;;7.93;;
31660;SDS011;18267;52.234;7.444;2023-06-26T00:08:37;8.77;;;7.38;;
31660;SDS011;18267;52.234;7.444;2023-06-26T00:11:02;8.63;;;7.20;;
31660;SDS011;18267;52.234;7.444;2023-06-26T00:13:28;11.05;;;7.80;;
31660;SDS011;18267;52.234;7.444;2023-06-26T00:15:54;8.63;;;7.13;;
31660;SDS011;18267;52.234;7.444;2023-06-26T00:18:20;8.52;;;7.63;;
31660;SDS011;18267;52.234;7.444;2023-06-26T00:20:47;9.38;;;7.20;;
31660;SDS011;18267;52.234;7.444;2023-06-26T00:23:13;8.70;;;7.78;;
31660;SDS011;18267;52.234;7.444;2023-06-26T00:25:41;9.27;;;7.05;;
31660;SDS011;18267;52.234;7.444;2023-06-26T00:28:07;8.93;;;7.63;;
31660;SDS011;18267;52.234;7.444;2023-06-26T00:30:32;8.82;;;7.93;;
31660;SDS011;18267;52.234;7.444;2023-06-26T00:32:59;8.60;;;7.60;;
31660;SDS011;18267;52.234;7.444;2023-06-26T00:35:25;10.38;;;7.50;;
31660;SDS011;18267;52.234;7.444;2023-06-26T00:37:50;10.20;;;7.70;;
31660;SDS011;18267;52.234;7.444;2023-06-26T00:40:16;8.77;;;7.03;;
31660;SDS011;18267;52.234;7.444;2023-06-26T00:42:41;8.88;;;7.25;;
31660;SDS011;18267;52.234;7.444;2023-06-26T00:45:07;9.15;;;7.53;;
31660;SDS011;18267;52.234;7.444;2023-06-26T00:47:32;7.38;;;6.45;;
31660;SDS011;18267;52.234;7.444;2023-06-26T00:49:58;13.70;;;7.55;;
31660;SDS011;18267;52.234;7.444;2023-06-26T00:52:24;7.60;;;6.75;;
31660;SDS011;18267;52.234;7.444;2023-06-26T00:54:51;9.93;;;8.55;;
31660;SDS011;18267;52.234;7.444;2023-06-26T00:57:17;10.38;;;8.18;;
31660;SDS011;18267;52.234;7.444;2023-06-26T00:59:43;8.10;;;7.28;;
31660;SDS011;18267;52.234;7.444;2023-06-26T01:02:09;10.40;;;7.95;;
31660;SDS011;18267;52.234;7.444;2023-06-26T01:04:35;9.07;;;7.70;;
31660;SDS011;18267;52.234;7.444;2023-06-26T01:07:01;12.18;;;8.27;;
31660;SDS011;18267;52.234;7.444;2023-06-26T01:09:27;10.48;;;7.82;;
31660;SDS011;18267;52.234;7.444;2023-06-26T01:11:54;9.60;;;7.82;;
31660;SDS011;18267;52.234;7.444;2023-06-26T01:14:20;9.15;;;7.65;;
31660;SDS011;18267;52.234;7.444;2023-06-26T01:16:45;7.95;;;7.15;;
31660;SDS011;18267;52.234;7.444;2023-06-26T01:19:25;8.82;;;7.93;;
31660;SDS011;18267;52.234;7.444;2023-06-26T01:22:29;11.32;;;7.70;;
31660;SDS011;18267;52.234;7.444;2023-06-26T01:27:44;14.50;;;7.50;;
31660;SDS011;18267;52.234;7.444;2023-06-26T01:30:12;11.18;;;8.30;;
31660;SDS011;18267;52.234;7.444;2023-06-26T01:32:39;10.18;;;7.60;;
31660;SDS011;18267;52.234;7.444;2023-06-26T01:35:05;9.77;;;7.75;;
31660;SDS011;18267;52.234;7.444;2023-06-26T01:37:33;9.52;;;8.40;;
31660;SDS011;18267;52.234;7.444;2023-06-26T01:39:59;10.88;;;8.32;;
31660;SDS011;18267;52.234;7.444;2023-06-26T01:42:24;10.77;;;8.43;;
31660;SDS011;18267;52.234;7.444;2023-06-26T01:44:52;11.15;;;7.53;;
31660;SDS011;18267;52.234;7.444;2023-06-26T01:47:21;11.50;;;8.82;;
31660;SDS011;18267;52.234;7.444;2023-06-26T01:52:43;13.88;;;8.55;;
31660;SDS011;18267;52.234;7.444;2023-06-26T01:57:45;13.20;;;8.23;;
31660;SDS011;18267;52.234;7.444;2023-06-26T02:00:13;11.05;;;7.80;;
31660;SDS011;18267;52.234;7.444;2023-06-26T02:02:42;11.40;;;8.65;;
31660;SDS011;18267;52.234;7.444;2023-06-26T02:05:08;10.80;;;8.52;;
31660;SDS011;18267;52.234;7.444;2023-06-26T02:07:34;11.57;;;8.27;;
31660;SDS011;18267;52.234;7.444;2023-06-26T02:10:00;11.63;;;8.95;;
31660;SDS011;18267;52.234;7.444;2023-06-26T02:12:26;9.98;;;8.85;;
31660;SDS011;18267;52.234;7.444;2023-06-26T02:14:51;11.25;;;8.63;;
31660;SDS011;18267;52.234;7.444;2023-06-26T02:17:17;10.70;;;8.35;;
31660;SDS011;18267;52.234;7.444;2023-06-26T02:19:42;13.50;;;8.90;;
31660;SDS011;18267;52.234;7.444;2023-06-26T02:22:12;10.02;;;7.80;;
31660;SDS011;18267;52.234;7.444;2023-06-26T02:24:39;10.07;;;8.77;;
31660;SDS011;18267;52.234;7.444;2023-06-26T02:27:04;10.93;;;8.88;;
31660;SDS011;18267;52.234;7.444;2023-06-26T02:29:30;9.35;;;8.18;;
31660;SDS011;18267;52.234;7.444;2023-06-26T02:31:55;11.55;;;8.38;;
31660;SDS011;18267;52.234;7.444;2023-06-26T02:34:22;11.95;;;8.60;;
31660;SDS011;18267;52.234;7.444;2023-06-26T02:36:47;9.20;;;7.78;;
31660;SDS011;18267;52.234;7.444;2023-06-26T02:39:13;12.07;;;9.02;;
31660;SDS011;18267;52.234;7.444;2023-06-26T02:41:39;13.30;;;8.05;;
31660;SDS011;18267;52.234;7.444;2023-06-26T02:44:05;11.85;;;8.52;;
31660;SDS011;18267;52.234;7.444;2023-06-26T02:46:31;11.00;;;8.52;;
31660;SDS011;18267;52.234;7.444;2023-06-26T02:48:56;10.85;;;8.27;;
31660;SDS011;18267;52.234;7.444;2023-06-26T02:51:23;10.10;;;7.90;;
31660;SDS011;18267;52.234;7.444;2023-06-26T02:53:49;10.80;;;8.82;;
31660;SDS011;18267;52.234;7.444;2023-06-26T02:56:14;8.90;;;7.93;;
31660;SDS011;18267;52.234;7.444;2023-06-26T02:58:40;12.25;;;9.48;;
31660;SDS011;18267;52.234;7.444;2023-06-26T03:01:05;11.75;;;8.57;;
31660;SDS011;18267;52.234;7.444;2023-06-26T03:03:31;13.35;;;8.45;;
31660;SDS011;18267;52.234;7.444;2023-06-26T03:06:09;13.52;;;8.68;;
31660;SDS011;18267;52.234;7.444;2023-06-26T03:08:36;10.13;;;8.30;;
31660;SDS011;18267;52.234;7.444;2023-06-26T03:11:04;14.25;;;8.57;;
31660;SDS011;18267;52.234;7.444;2023-06-26T03:13:29;10.00;;;8.40;;
31660;SDS011;18267;52.234;7.444;2023-06-26T03:15:55;10.30;;;8.35;;
31660;SDS011;18267;52.234;7.444;2023-06-26T03:18:21;12.52;;;9.07;;
31660;SDS011;18267;52.234;7.444;2023-06-26T03:20:46;11.23;;;8.35;;
31660;SDS011;18267;52.234;7.444;2023-06-26T03:23:13;11.27;;;8.30;;
31660;SDS011;18267;52.234;7.444;2023-06-26T03:25:38;12.52;;;7.05;;
31660;SDS011;18267;52.234;7.444;2023-06-26T03:28:04;10.13;;;8.35;;
31660;SDS011;18267;52.234;7.444;2023-06-26T03:30:29;11.68;;;8.07;;
31660;SDS011;18267;52.234;7.444;2023-06-26T03:32:55;10.63;;;8.52;;
31660;SDS011;18267;52.234;7.444;2023-06-26T03:35:21;14.60;;;8.68;;
31660;SDS011;18267;52.234;7.444;2023-06-26T03:37:48;11.38;;;8.18;;
31660;SDS011;18267;52.234;7.444;2023-06-26T03:40:14;11.68;;;8.65;;
31660;SDS011;18267;52.234;7.444;2023-06-26T03:42:40;9.82;;;8.45;;
31660;SDS011;18267;52.234;7.444;2023-06-26T03:45:08;11.25;;;8.23;;
31660;SDS011;18267;52.234;7.444;2023-06-26T03:47:33;10.20;;;7.93;;
31660;SDS011;18267;52.234;7.444;2023-06-26T03:49:59;11.73;;;8.32;;
31660;SDS011;18267;52.234;7.444;2023-06-26T03:52:25;10.50;;;8.23;;
31660;SDS011;18267;52.234;7.444;2023-06-26T03:57:24;10.55;;;7.63;;
31660;SDS011;18267;52.234;7.444;2023-06-26T03:59:50;11.38;;;8.32;;
31660;SDS011;18267;52.234;7.444;2023-06-26T04:02:16;10.15;;;8.07;;
31660;SDS011;18267;52.234;7.444;2023-06-26T04:04:42;10.25;;;8.77;;
31660;SDS011;18267;52.234;7.444;2023-06-26T04:07:07;11.05;;;7.40;;
31660;SDS011;18267;52.234;7.444;2023-06-26T04:09:33;13.73;;;8.55;;
31660;SDS011;18267;52.234;7.444;2023-06-26T04:11:59;9.90;;;8.27;;
31660;SDS011;18267;52.234;7.444;2023-06-26T04:14:25;11.88;;;7.80;;
31660;SDS011;18267;52.234;7.444;2023-06-26T04:16:52;13.07;;;8.15;;
31660;SDS011;18267;52.234;7.444;2023-06-26T04:19:18;10.80;;;8.18;;
31660;SDS011;18267;52.234;7.444;2023-06-26T04:21:44;15.40;;;8.82;;
31660;SDS011;18267;52.234;7.444;2023-06-26T04:24:10;25.98;;;8.75;;
31660;SDS011;18267;52.234;7.444;2023-06-26T04:26:36;15.38;;;8.70;;
31660;SDS011;18267;52.234;7.444;2023-06-26T04:29:02;15.05;;;8.38;;
31660;SDS011;18267;52.234;7.444;2023-06-26T04:31:28;12.18;;;7.97;;
31660;SDS011;18267;52.234;7.444;2023-06-26T04:33:54;14.82;;;9.13;;
31660;SDS011;18267;52.234;7.444;2023-06-26T04:36:21;14.80;;;7.80;;
31660;SDS011;18267;52.234;7.444;2023-06-26T04:38:46;10.90;;;7.75;;
31660;SDS011;18267;52.234;7.444;2023-06-26T04:41:19;13.73;;;7.68;;
31660;SDS011;18267;52.234;7.444;2023-06-26T04:43:44;14.65;;;8.27;;
31660;SDS011;18267;52.234;7.444;2023-06-26T04:46:11;12.38;;;8.25;;
31660;SDS011;18267;52.234;7.444;2023-06-26T04:48:36;12.23;;;8.15;;
31660;SDS011;18267;52.234;7.444;2023-06-26T04:51:02;10.20;;;8.23;;
31660;SDS011;18267;52.234;7.444;2023-06-26T04:53:29;12.20;;;8.35;;
31660;SDS011;18267;52.234;7.444;2023-06-26T04:55:55;14.10;;;8.02;;
31660;SDS011;18267;52.234;7.444;2023-06-26T04:58:21;12.73;;;9.13;;
31660;SDS011;18267;52.234;7.444;2023-06-26T05:00:46;10.60;;;8.50;;
31660;SDS011;18267;52.234;7.444;2023-06-26T05:03:14;13.13;;;8.50;;
31660;SDS011;18267;52.234;7.444;2023-06-26T05:05:41;17.52;;;8.75;;
31660;SDS011;18267;52.234;7.444;2023-06-26T05:08:14;12.32;;;8.70;;
31660;SDS011;18267;52.234;7.444;2023-06-26T05:10:41;16.33;;;8.52;;
31660;SDS011;18267;52.234;7.444;2023-06-26T05:13:07;14.60;;;8.25;;
31660;SDS011;18267;52.234;7.444;2023-06-26T05:15:32;12.68;;;8.50;;
31660;SDS011;18267;52.234;7.444;2023-06-26T05:17:58;14.55;;;9.32;;
31660;SDS011;18267;52.234;7.444;2023-06-26T05:20:24;13.35;;;7.80;;
31660;SDS011;18267;52.234;7.444;2023-06-26T05:22:49;11.40;;;7.95;;
31660;SDS011;18267;52.234;7.444;2023-06-26T05:25:15;12.82;;;8.32;;
31660;SDS011;18267;52.234;7.444;2023-06-26T05:27:43;10.90;;;8.30;;
31660;SDS011;18267;52.234;7.444;2023-06-26T05:30:08;9.15;;;7.38;;
31660;SDS011;18267;52.234;7.444;2023-06-26T05:32:35;14.40;;;8.15;;
31660;SDS011;18267;52.234;7.444;2023-06-26T05:35:04;12.80;;;7.72;;
31660;SDS011;18267;52.234;7.444;2023-06-26T05:37:30;9.02;;;7.53;;
31660;SDS011;18267;52.234;7.444;2023-06-26T05:39:57;14.75;;;8.07;;
31660;SDS011;18267;52.234;7.444;2023-06-26T05:42:22;10.68;;;7.78;;
31660;SDS011;18267;52.234;7.444;2023-06-26T05:44:51;9.73;;;7.38;;
31660;SDS011;18267;52.234;7.444;2023-06-26T05:47:17;10.32;;;7.78;;
31660;SDS011;18267;52.234;7.444;2023-06-26T05:49:42;7.85;;;6.88;;
31660;SDS011;18267;52.234;7.444;2023-06-26T05:52:08;11.38;;;7.72;;
31660;SDS011;18267;52.234;7.444;2023-06-26T05:54:35;12.73;;;7.32;;
31660;SDS011;18267;52.234;7.444;2023-06-26T05:57:01;10.73;;;7.28;;
31660;SDS011;18267;52.234;7.444;2023-06-26T05:59:28;9.30;;;7.25;;
31660;SDS011;18267;52.234;7.444;2023-06-26T06:01:59;13.10;;;7.68;;
31660;SDS011;18267;52.234;7.444;2023-06-26T06:04:24;10.25;;;6.28;;
31660;SDS011;18267;52.234;7.444;2023-06-26T06:06:51;11.57;;;6.63;;
31660;SDS011;18267;52.234;7.444;2023-06-26T06:09:17;11.27;;;6.95;;
31660;SDS011;18267;52.234;7.444;2023-06-26T06:11:42;10.10;;;7.30;;
31660;SDS011;18267;52.234;7.444;2023-06-26T06:14:08;9.90;;;7.13;;
31660;SDS011;18267;52.234;7.444;2023-06-26T06:16:33;7.00;;;5.60;;
31660;SDS011;18267;52.234;7.444;2023-06-26T06:18:59;9.48;;;6.32;;
31660;SDS011;18267;52.234;7.444;2023-06-26T06:21:25;9.73;;;5.97;;
31660;SDS011;18267;52.234;7.444;2023-06-26T06:23:50;12.43;;;6.47;;
31660;SDS011;18267;52.234;7.444;2023-06-26T06:26:22;11.98;;;6.03;;
31660;SDS011;18267;52.234;7.444;2023-06-26T06:28:47;13.93;;;7.03;;
31660;SDS011;18267;52.234;7.444;2023-06-26T06:31:13;13.27;;;6.35;;
31660;SDS011;18267;52.234;7.444;2023-06-26T06:33:38;11.10;;;5.45;;
31660;SDS011;18267;52.234;7.444;2023-06-26T06:36:04;7.05;;;5.30;;
31660;SDS011;18267;52.234;7.444;2023-06-26T06:38:30;8.05;;;5.90;;
31660;SDS011;18267;52.234;7.444;2023-06-26T06:40:56;10.43;;;5.43;;
31660;SDS011;18267;52.234;7.444;2023-06-26T06:43:22;12.82;;;5.50;;
31660;SDS011;18267;52.234;7.444;2023-06-26T06:45:48;10.40;;;5.15;;
31660;SDS011;18267;52.234;7.444;2023-06-26T06:48:13;13.25;;;5.03;;
31660;SDS011;18267;52.234;7.444;2023-06-26T06:50:39;10.38;;;4.95;;
31660;SDS011;18267;52.234;7.444;2023-06-26T06:53:04;10.05;;;5.13;;
31660;SDS011;18267;52.234;7.444;2023-06-26T06:55:30;12.35;;;4.72;;
31660;SDS011;18267;52.234;7.444;2023-06-26T06:57:59;8.02;;;4.13;;
31660;SDS011;18267;52.234;7.444;2023-06-26T07:00:26;12.77;;;4.45;;
31660;SDS011;18267;52.234;7.444;2023-06-26T07:02:52;10.45;;;4.00;;
31660;SDS011;18267;52.234;7.444;2023-06-26T07:05:18;11.07;;;4.53;;
31660;SDS011;18267;52.234;7.444;2023-06-26T07:07:43;12.23;;;4.28;;
31660;SDS011;18267;52.234;7.444;2023-06-26T07:10:10;10.85;;;4.28;;
31660;SDS011;18267;52.234;7.444;2023-06-26T07:12:37;9.50;;;4.78;;
31660;SDS011;18267;52.234;7.444;2023-06-26T07:15:03;8.02;;;4.78;;
31660;SDS011;18267;52.234;7.444;2023-06-26T07:17:30;12.35;;;4.97;;
31660;SDS011;18267;52.234;7.444;2023-06-26T07:19:57;5.82;;;4.45;;
31660;SDS011;18267;52.234;7.444;2023-06-26T07:22:23;14.10;;;4.57;;
31660;SDS011;18267;52.234;7.444;2023-06-26T07:24:49;12.25;;;4.47;;
31660;SDS011;18267;52.234;7.444;2023-06-26T07:27:15;9.30;;;4.55;;
31660;SDS011;18267;52.234;7.444;2023-06-26T07:29:41;11.80;;;4.43;;
31660;SDS011;18267;52.234;7.444;2023-06-26T07:32:07;12.10;;;4.38;;
31660;SDS011;18267;52.234;7.444;2023-06-26T07:34:32;6.88;;;4.70;;
31660;SDS011;18267;52.234;7.444;2023-06-26T07:36:58;10.65;;;4.90;;
31660;SDS011;18267;52.234;7.444;2023-06-26T07:39:24;12.75;;;4.43;;
31660;SDS011;18267;52.234;7.444;2023-06-26T07:41:50;9.43;;;4.50;;
31660;SDS011;18267;52.234;7.444;2023-06-26T07:44:15;9.85;;;4.22;;
31660;SDS011;18267;52.234;7.444;2023-06-26T07:46:41;8.40;;;3.85;;
31660;SDS011;18267;52.234;7.444;2023-06-26T07:49:07;12.98;;;4.32;;
31660;SDS011;18267;52.234;7.444;2023-06-26T07:51:33;6.53;;;4.35;;
31660;SDS011;18267;52.234;7.444;2023-06-26T07:53:58;13.02;;;4.50;;
31660;SDS011;18267;52.234;7.444;2023-06-26T07:56:25;10.90;;;5.03;;
31660;SDS011;18267;52.234;7.444;2023-06-26T07:58:51;7.93;;;4.65;;
31660;SDS011;18267;52.234;7.444;2023-06-26T08:01:17;8.68;;;5.07;;
31660;SDS011;18267;52.234;7.444;2023-06-26T08:03:44;14.15;;;4.30;;
31660;SDS011;18267;52.234;7.444;2023-06-26T08:06:10;8.75;;;4.70;;
31660;SDS011;18267;52.234;7.444;2023-06-26T08:08:36;8.48;;;4.80;;
31660;SDS011;18267;52.234;7.444;2023-06-26T08:11:01;7.00;;;3.53;;
31660;SDS011;18267;52.234;7.444;2023-06-26T08:13:27;8.93;;;4.43;;
31660;SDS011;18267;52.234;7.444;2023-06-26T08:15:53;7.90;;;4.20;;
31660;SDS011;18267;52.234;7.444;2023-06-26T08:18:18;11.77;;;3.78;;
31660;SDS011;18267;52.234;7.444;2023-06-26T08:20:44;6.03;;;3.75;;
31660;SDS011;18267;52.234;7.444;2023-06-26T08:23:09;8.80;;;4.00;;
31660;SDS011;18267;52.234;7.444;2023-06-26T08:25:35;8.13;;;3.50;;
31660;SDS011;18267;52.234;7.444;2023-06-26T08:28:01;6.93;;;3.13;;
31660;SDS011;18267;52.234;7.444;2023-06-26T08:30:26;6.97;;;4.68;;
31660;SDS011;18267;52.234;7.444;2023-06-26T08:32:54;6.85;;;3.15;;
31660;SDS011;18267;52.234;7.444;2023-06-26T08:35:20;7.20;;;3.45;;
31660;SDS011;18267;52.234;7.444;2023-06-26T08:37:47;4.63;;;3.30;;
31660;SDS011;18267;52.234;7.444;2023-06-26T08:40:16;10.27;;;3.47;;
31660;SDS011;18267;52.234;7.444;2023-06-26T08:42:43;8.80;;;3.28;;
31660;SDS011;18267;52.234;7.444;2023-06-26T08:45:09;4.57;;;2.72;;
31660;SDS011;18267;52.234;7.444;2023-06-26T08:47:35;13.55;;;3.30;;
31660;SDS011;18267;52.234;7.444;2023-06-26T08:52:43;8.25;;;2.75;;
31660;SDS011;18267;52.234;7.444;2023-06-26T08:55:14;4.50;;;2.53;;
31660;SDS011;18267;52.234;7.444;2023-06-26T08:57:43;5.32;;;2.78;;
31660;SDS011;18267;52.234;7.444;2023-06-26T09:00:09;4.97;;;1.88;;
31660;SDS011;18267;52.234;7.444;2023-06-26T09:02:36;5.00;;;1.83;;
31660;SDS011;18267;52.234;7.444;2023-06-26T09:05:03;5.40;;;1.90;;
31660;SDS011;18267;52.234;7.444;2023-06-26T09:07:29;2.75;;;1.95;;
31660;SDS011;18267;52.234;7.444;2023-06-26T09:09:54;3.10;;;1.98;;
31660;SDS011;18267;52.234;7.444;2023-06-26T09:12:20;3.38;;;1.40;;
31660;SDS011;18267;52.234;7.444;2023-06-26T09:14:46;3.65;;;1.80;;
31660;SDS011;18267;52.234;7.444;2023-06-26T09:17:12;3.70;;;1.63;;
31660;SDS011;18267;52.234;7.444;2023-06-26T09:19:38;4.85;;;1.60;;
31660;SDS011;18267;52.234;7.444;2023-06-26T09:22:04;2.33;;;1.50;;
31660;SDS011;18267;52.234;7.444;2023-06-26T09:24:35;4.07;;;1.80;;
31660;SDS011;18267;52.234;7.444;2023-06-26T09:27:02;4.22;;;1.48;;
31660;SDS011;18267;52.234;7.444;2023-06-26T09:29:28;2.05;;;1.55;;
31660;SDS011;18267;52.234;7.444;2023-06-26T09:31:55;3.33;;;1.33;;
31660;SDS011;18267;52.234;7.444;2023-06-26T09:34:21;1.95;;;1.25;;
31660;SDS011;18267;52.234;7.444;2023-06-26T09:36:47;2.95;;;1.40;;
31660;SDS011;18267;52.234;7.444;2023-06-26T09:39:16;6.25;;;1.58;;
31660;SDS011;18267;52.234;7.444;2023-06-26T09:41:42;2.53;;;1.20;;
31660;SDS011;18267;52.234;7.444;2023-06-26T09:44:10;2.05;;;1.30;;
31660;SDS011;18267;52.234;7.444;2023-06-26T09:46:37;3.53;;;1.77;;
31660;SDS011;18267;52.234;7.444;2023-06-26T09:49:05;3.55;;;1.90;;
31660;SDS011;18267;52.234;7.444;2023-06-26T09:51:37;4.93;;;1.30;;
31660;SDS011;18267;52.234;7.444;2023-06-26T09:54:04;4.03;;;1.63;;
31660;SDS011;18267;52.234;7.444;2023-06-26T09:56:31;4.40;;;1.50;;
31660;SDS011;18267;52.234;7.444;2023-06-26T09:59:00;1.85;;;1.50;;
31660;SDS011;18267;52.234;7.444;2023-06-26T10:01:29;2.92;;;1.52;;
31660;SDS011;18267;52.234;7.444;2023-06-26T10:03:56;5.85;;;1.58;;
31660;SDS011;18267;52.234;7.444;2023-06-26T10:06:24;2.72;;;1.73;;
31660;SDS011;18267;52.234;7.444;2023-06-26T10:08:51;2.00;;;1.42;;
31660;SDS011;18267;52.234;7.444;2023-06-26T10:11:19;3.22;;;1.38;;
31660;SDS011;18267;52.234;7.444;2023-06-26T10:13:47;1.90;;;1.35;;
31660;SDS011;18267;52.234;7.444;2023-06-26T10:16:17;3.60;;;1.40;;
31660;SDS011;18267;52.234;7.444;2023-06-26T10:18:48;2.33;;;1.55;;
31660;SDS011;18267;52.234;7.444;2023-06-26T10:21:17;2.83;;;1.48;;
31660;SDS011;18267;52.234;7.444;2023-06-26T10:23:46;5.68;;;1.67;;
31660;SDS011;18267;52.234;7.444;2023-06-26T10:26:13;5.97;;;1.70;;
31660;SDS011;18267;52.234;7.444;2023-06-26T10:28:40;3.00;;;1.20;;
31660;SDS011;18267;52.234;7.444;2023-06-26T10:31:07;2.50;;;1.58;;
31660;SDS011;18267;52.234;7.444;2023-06-26T10:33:35;3.42;;;1.52;;
31660;SDS011;18267;52.234;7.444;2023-06-26T10:36:12;1.40;;;1.23;;
31660;SDS011;18267;52.234;7.444;2023-06-26T10:38:51;5.03;;;1.55;;
31660;SDS011;18267;52.234;7.444;2023-06-26T10:41:23;1.95;;;1.75;;
31660;SDS011;18267;52.234;7.444;2023-06-26T10:43:50;3.22;;;1.88;;
31660;SDS011;18267;52.234;7.444;2023-06-26T10:46:17;5.47;;;1.70;;
31660;SDS011;18267;52.234;7.444;2023-06-26T10:48:57;6.07;;;1.90;;
31660;SDS011;18267;52.234;7.444;2023-06-26T10:51:25;4.25;;;1.30;;
31660;SDS011;18267;52.234;7.444;2023-06-26T10:53:54;2.45;;;1.48;;
31660;SDS011;18267;52.234;7.444;2023-06-26T10:56:21;3.58;;;1.65;;
31660;SDS011;18267;52.234;7.444;2023-06-26T10:59:18;3.88;;;1.55;;
31660;SDS011;18267;52.234;7.444;2023-06-26T11:01:46;4.03;;;1.58;;
31660;SDS011;18267;52.234;7.444;2023-06-26T11:04:21;5.97;;;1.65;;
31660;SDS011;18267;52.234;7.444;2023-06-26T11:12:38;2.58;;;1.40;;
31660;SDS011;18267;52.234;7.444;2023-06-26T11:15:13;2.30;;;1.55;;
31660;SDS011;18267;52.234;7.444;2023-06-26T11:17:44;1.88;;;1.30;;
31660;SDS011;18267;52.234;7.444;2023-06-26T11:20:12;3.28;;;1.50;;
31660;SDS011;18267;52.234;7.444;2023-06-26T11:22:39;4.82;;;1.65;;
31660;SDS011;18267;52.234;7.444;2023-06-26T11:25:06;3.40;;;1.50;;
31660;SDS011;18267;52.234;7.444;2023-06-26T11:27:40;8.20;;;1.92;;
31660;SDS011;18267;52.234;7.444;2023-06-26T11:30:07;2.42;;;1.33;;
31660;SDS011;18267;52.234;7.444;2023-06-26T11:32:34;1.35;;;1.17;;
31660;SDS011;18267;52.234;7.444;2023-06-26T11:35:01;5.50;;;1.60;;
31660;SDS011;18267;52.234;7.444;2023-06-26T11:37:27;1.92;;;1.30;;
31660;SDS011;18267;52.234;7.444;2023-06-26T11:39:59;1.52;;;1.42;;
31660;SDS011;18267;52.234;7.444;2023-06-26T11:42:40;2.80;;;1.50;;
31660;SDS011;18267;52.234;7.444;2023-06-26T11:45:06;3.45;;;1.58;;
31660;SDS011;18267;52.234;7.444;2023-06-26T11:47:32;5.13;;;2.08;;
31660;SDS011;18267;52.234;7.444;2023-06-26T11:49:57;3.20;;;1.63;;
31660;SDS011;18267;52.234;7.444;2023-06-26T11:52:24;2.63;;;1.60;;
31660;SDS011;18267;52.234;7.444;2023-06-26T11:54:49;3.20;;;1.88;;
31660;SDS011;18267;52.234;7.444;2023-06-26T11:57:15;2.25;;;1.50;;
31660;SDS011;18267;52.234;7.444;2023-06-26T11:59:45;9.27;;;2.33;;
31660;SDS011;18267;52.234;7.444;2023-06-26T12:02:15;1.95;;;1.65;;
31660;SDS011;18267;52.234;7.444;2023-06-26T12:04:41;9.00;;;2.38;;
31660;SDS011;18267;52.234;7.444;2023-06-26T12:07:08;3.50;;;1.75;;
31660;SDS011;18267;52.234;7.444;2023-06-26T12:09:38;5.50;;;2.05;;
31660;SDS011;18267;52.234;7.444;2023-06-26T12:12:11;3.80;;;1.58;;
31660;SDS011;18267;52.234;7.444;2023-06-26T12:14:39;1.92;;;1.45;;
31660;SDS011;18267;52.234;7.444;2023-06-26T12:17:11;2.25;;;1.33;;
31660;SDS011;18267;52.234;7.444;2023-06-26T12:19:38;4.15;;;1.50;;
31660;SDS011;18267;52.234;7.444;2023-06-26T12:22:15;4.68;;;1.65;;
31660;SDS011;18267;52.234;7.444;2023-06-26T12:24:42;4.97;;;1.40;;
31660;SDS011;18267;52.234;7.444;2023-06-26T12:27:09;5.40;;;1.73;;
31660;SDS011;18267;52.234;7.444;2023-06-26T12:29:37;2.05;;;1.30;;
31660;SDS011;18267;52.234;7.444;2023-06-26T12:32:07;8.63;;;1.60;;
31660;SDS011;18267;52.234;7.444;2023-06-26T12:34:35;3.05;;;1.45;;
31660;SDS011;18267;52.234;7.444;2023-06-26T12:37:03;7.47;;;1.55;;
31660;SDS011;18267;52.234;7.444;2023-06-26T12:39:30;5.10;;;1.35;;
31660;SDS011;18267;52.234;7.444;2023-06-26T12:42:18;4.63;;;1.08;;
31660;SDS011;18267;52.234;7.444;2023-06-26T12:44:54;4.60;;;1.00;;
31660;SDS011;18267;52.234;7.444;2023-06-26T12:47:26;5.57;;;1.05;;
31660;SDS011;18267;52.234;7.444;2023-06-26T12:49:53;3.67;;;1.10;;
31660;SDS011;18267;52.234;7.444;2023-06-26T12:52:18;2.25;;;1.10;;
31660;SDS011;18267;52.234;7.444;2023-06-26T12:54:45;1.88;;;1.20;;
31660;SDS011;18267;52.234;7.444;2023-06-26T12:57:12;3.28;;;1.20;;
31660;SDS011;18267;52.234;7.444;2023-06-26T12:59:41;8.13;;;1.30;;
31660;SDS011;18267;52.234;7.444;2023-06-26T13:02:07;3.05;;;0.90;;
31660;SDS011;18267;52.234;7.444;2023-06-26T13:04:33;4.07;;;1.00;;
31660;SDS011;18267;52.234;7.444;2023-06-26T13:07:00;3.53;;;0.90;;
31660;SDS011;18267;52.234;7.444;2023-06-26T13:09:26;1.40;;;0.85;;
31660;SDS011;18267;52.234;7.444;2023-06-26T13:11:52;3.28;;;0.93;;
31660;SDS011;18267;52.234;7.444;2023-06-26T13:14:18;6.20;;;1.23;;
31660;SDS011;18267;52.234;7.444;2023-06-26T13:16:43;3.50;;;1.13;;
31660;SDS011;18267;52.234;7.444;2023-06-26T13:19:09;7.15;;;1.00;;
31660;SDS011;18267;52.234;7.444;2023-06-26T13:21:35;1.77;;;1.00;;
31660;SDS011;18267;52.234;7.444;2023-06-26T13:24:01;3.53;;;0.85;;
31660;SDS011;18267;52.234;7.444;2023-06-26T13:26:28;3.17;;;0.90;;
31660;SDS011;18267;52.234;7.444;2023-06-26T13:28:55;1.92;;;1.10;;
31660;SDS011;18267;52.234;7.444;2023-06-26T13:31:22;3.65;;;0.80;;
31660;SDS011;18267;52.234;7.444;2023-06-26T13:33:47;1.83;;;0.82;;
31660;SDS011;18267;52.234;7.444;2023-06-26T13:36:17;1.92;;;1.00;;
31660;SDS011;18267;52.234;7.444;2023-06-26T13:38:43;1.48;;;0.77;;
31660;SDS011;18267;52.234;7.444;2023-06-26T13:41:09;5.95;;;1.10;;
31660;SDS011;18267;52.234;7.444;2023-06-26T13:43:35;2.92;;;1.02;;
31660;SDS011;18267;52.234;7.444;2023-06-26T13:46:01;1.30;;;0.80;;
31660;SDS011;18267;52.234;7.444;2023-06-26T13:48:28;4.15;;;0.80;;
31660;SDS011;18267;52.234;7.444;2023-06-26T13:50:53;1.10;;;0.68;;
31660;SDS011;18267;52.234;7.444;2023-06-26T13:53:19;1.15;;;0.70;;
31660;SDS011;18267;52.234;7.444;2023-06-26T13:55:45;2.10;;;0.82;;
31660;SDS011;18267;52.234;7.444;2023-06-26T13:58:11;2.95;;;0.60;;
31660;SDS011;18267;52.234;7.444;2023-06-26T14:00:38;2.35;;;0.70;;
31660;SDS011;18267;52.234;7.444;2023-06-26T14:03:05;6.97;;;0.70;;
31660;SDS011;18267;52.234;7.444;2023-06-26T14:05:35;0.90;;;0.80;;
31660;SDS011;18267;52.234;7.444;2023-06-26T14:08:02;3.08;;;0.80;;
31660;SDS011;18267;52.234;7.444;2023-06-26T14:10:29;1.20;;;0.63;;
31660;SDS011;18267;52.234;7.444;2023-06-26T14:12:55;1.38;;;0.73;;
31660;SDS011;18267;52.234;7.444;2023-06-26T14:15:21;0.93;;;0.73;;
31660;SDS011;18267;52.234;7.444;2023-06-26T14:17:47;2.17;;;0.65;;
31660;SDS011;18267;52.234;7.444;2023-06-26T14:20:13;4.47;;;0.60;;
31660;SDS011;18267;52.234;7.444;2023-06-26T14:22:39;6.00;;;0.93;;
31660;SDS011;18267;52.234;7.444;2023-06-26T14:25:05;2.83;;;0.73;;
31660;SDS011;18267;52.234;7.444;2023-06-26T14:27:32;5.40;;;0.85;;
31660;SDS011;18267;52.234;7.444;2023-06-26T14:29:58;8.70;;;0.77;;
31660;SDS011;18267;52.234;7.444;2023-06-26T14:32:23;4.97;;;0.80;;
31660;SDS011;18267;52.234;7.444;2023-06-26T14:34:49;2.80;;;0.55;;
31660;SDS011;18267;52.234;7.444;2023-06-26T14:37:14;4.57;;;0.82;;
31660;SDS011;18267;52.234;7.444;2023-06-26T14:39:43;4.20;;;0.65;;
31660;SDS011;18267;52.234;7.444;2023-06-26T14:42:09;0.98;;;0.50;;
31660;SDS011;18267;52.234;7.444;2023-06-26T14:44:35;4.45;;;1.23;;
31660;SDS011;18267;52.234;7.444;2023-06-26T14:47:01;1.13;;;0.75;;
31660;SDS011;18267;52.234;7.444;2023-06-26T14:49:26;10.30;;;0.70;;
31660;SDS011;18267;52.234;7.444;2023-06-26T14:51:52;3.53;;;0.60;;
31660;SDS011;18267;52.234;7.444;2023-06-26T14:54:18;5.57;;;0.93;;
31660;SDS011;18267;52.234;7.444;2023-06-26T14:56:43;0.85;;;0.40;;
31660;SDS011;18267;52.234;7.444;2023-06-26T14:59:10;4.10;;;0.80;;
31660;SDS011;18267;52.234;7.444;2023-06-26T15:01:37;2.75;;;0.50;;